Time;durP1;ratioP1;P1;durP2;ratioP2;P2;SDS_P1;SDS_P2;PMS_P1;PMS_P2;Temp;Humidity;BMP_temperature;BMP_pressure;BME280_temperature;BME280_humidity;BME280_pressure;Samples;Min_cycle;Max_cycle;Signal;HPM_P1;HPM_P2
2022/01/02 00:00:45;;;;;;;9.17;7.07;;;;;;;9.41;100.00;95220.53;4952823;28;20233;-62
2022/01/02 00:03:18;;;;;;;9.97;7.57;;;;;;;9.41;100.00;95215.47;4951103;28;20287;-59
2022/01/02 00:05:45;;;;;;;10.20;7.50;;;;;;;9.45;100.00;95226.19;4951535;28;20328;-59
2022/01/02 00:08:11;;;;;;;9.80;7.00;;;;;;;9.41;100.00;95228.16;4950209;29;20260;-59
2022/01/02 00:10:47;;;;;;;9.43;6.83;;;;;;;9.42;100.00;95221.31;4950972;28;20705;-61
2022/01/02 00:13:23;;;;;;;9.87;7.03;;;;;;;9.40;100.00;95228.25;4951242;28;20223;-59
2022/01/02 00:15:51;;;;;;;10.93;7.30;;;;;;;9.41;100.00;95235.78;4951030;28;20337;-60
2022/01/02 00:18:18;;;;;;;9.60;7.07;;;;;;;9.43;100.00;95239.00;4950982;28;20268;-62
2022/01/02 00:20:48;;;;;;;11.10;8.13;;;;;;;9.45;100.00;95232.09;4950800;28;20225;-61
2022/01/02 00:23:20;;;;;;;9.13;7.10;;;;;;;9.51;100.00;95239.28;4950078;29;20543;-60
2022/01/02 00:25:50;;;;;;;11.37;8.03;;;;;;;9.54;100.00;95244.13;4950752;28;20231;-61
2022/01/02 00:28:17;;;;;;;9.80;7.13;;;;;;;9.51;100.00;95249.41;5033533;28;20196;-60
2022/01/02 00:30:44;;;;;;;11.23;7.27;;;;;;;9.55;100.00;95238.13;4950851;28;20201;-60
2022/01/02 00:33:11;;;;;;;11.10;7.03;;;;;;;9.59;100.00;95237.00;4950687;28;20550;-61
2022/01/02 00:35:37;;;;;;;9.53;6.77;;;;;;;9.57;100.00;95236.28;4949296;28;20212;-60
2022/01/02 00:38:09;;;;;;;10.27;7.17;;;;;;;9.59;100.00;95231.91;4950775;28;20264;-60
2022/01/02 00:40:40;;;;;;;11.80;7.27;;;;;;;9.61;100.00;95232.63;4950587;28;20225;-61
2022/01/02 00:43:13;;;;;;;9.07;7.50;;;;;;;9.61;100.00;95242.78;4950703;28;20169;-62
2022/01/02 00:45:45;;;;;;;9.07;6.80;;;;;;;9.63;100.00;95250.28;5033133;28;20205;-61
2022/01/02 00:48:24;;;;;;;11.47;7.00;;;;;;;9.61;100.00;95242.78;4950629;28;20181;-59
2022/01/02 00:51:02;;;;;;;8.73;7.07;;;;;;;9.61;100.00;95244.50;4950731;28;20312;-60
2022/01/02 00:53:33;;;;;;;9.93;7.53;;;;;;;9.64;100.00;95234.09;4950541;28;20235;-61
2022/01/02 00:56:01;;;;;;;8.33;6.63;;;;;;;9.65;100.00;95239.09;4949243;29;20208;-59
2022/01/02 00:58:53;;;;;;;8.37;7.00;;;;;;;9.66;100.00;95250.03;4950607;28;20666;-61
2022/01/02 01:01:24;;;;;;;8.33;6.47;;;;;;;9.67;100.00;95247.41;4950592;28;20229;-62
2022/01/02 01:03:53;;;;;;;10.80;7.67;;;;;;;9.67;100.00;95246.59;4950585;28;20177;-61
2022/01/02 01:06:27;;;;;;;9.50;6.90;;;;;;;9.69;100.00;95239.69;4950633;28;20209;-61
2022/01/02 01:08:58;;;;;;;7.70;6.43;;;;;;;9.76;100.00;95246.72;4950556;28;20201;-60
2022/01/02 01:11:28;;;;;;;8.83;6.87;;;;;;;9.64;100.00;95247.63;4950713;28;20287;-60
2022/01/02 01:13:55;;;;;;;10.57;7.20;;;;;;;9.75;100.00;95251.94;4950597;28;20193;-59
2022/01/02 01:16:21;;;;;;;9.67;6.80;;;;;;;9.70;100.00;95257.31;4950354;28;20270;-61
2022/01/02 01:18:47;;;;;;;8.40;6.57;;;;;;;9.68;100.00;95258.34;4950463;28;20716;-61
2022/01/02 01:21:13;;;;;;;8.13;6.37;;;;;;;9.71;100.00;95248.81;4950193;28;20585;-62
2022/01/02 01:23:40;;;;;;;10.03;6.67;;;;;;;9.73;100.00;95257.13;4950611;28;20185;-61
2022/01/02 01:26:08;;;;;;;9.73;7.00;;;;;;;9.71;100.00;95251.34;4948963;29;20808;-61
2022/01/02 01:28:34;;;;;;;6.87;6.00;;;;;;;9.77;100.00;95248.38;4950583;28;20185;-62
2022/01/02 01:30:59;;;;;;;8.07;6.27;;;;;;;9.77;100.00;95247.56;4949135;28;20201;-60
2022/01/02 01:33:25;;;;;;;7.40;6.10;;;;;;;9.76;100.00;95258.63;4948753;28;20186;-60
2022/01/02 01:35:50;;;;;;;7.17;6.20;;;;;;;9.77;100.00;95257.72;4950143;28;20212;-61
2022/01/02 01:38:16;;;;;;;8.17;6.00;;;;;;;9.79;100.00;95250.78;4953157;28;20600;-63
2022/01/02 01:40:52;;;;;;;6.20;5.60;;;;;;;9.74;100.00;95253.66;4953575;28;20231;-60
2022/01/02 01:43:17;;;;;;;7.50;5.70;;;;;;;9.80;100.00;95258.28;4953499;28;20173;-61
2022/01/02 01:45:43;;;;;;;7.90;5.97;;;;;;;9.84;100.00;95256.31;4953364;28;20224;-61
2022/01/02 01:48:09;;;;;;;8.63;6.37;;;;;;;9.83;100.00;95255.53;4952254;28;20527;-62
2022/01/02 01:50:38;;;;;;;8.17;6.20;;;;;;;9.84;100.00;95261.41;4951980;28;20208;-60
2022/01/02 01:53:04;;;;;;;7.27;5.87;;;;;;;9.92;100.00;95262.47;4953544;28;20647;-62
2022/01/02 01:55:31;;;;;;;6.93;5.40;;;;;;;9.94;100.00;95269.97;4953452;28;20177;-62
2022/01/02 01:57:57;;;;;;;6.20;5.60;;;;;;;9.90;100.00;95269.41;5036338;28;20217;-62
2022/01/02 02:00:23;;;;;;;6.80;5.80;;;;;;;9.89;100.00;95267.81;4953264;28;20267;-62
2022/01/02 02:02:49;;;;;;;7.83;5.47;;;;;;;9.92;100.00;95267.56;4953085;28;20177;-63
2022/01/02 02:05:15;;;;;;;8.03;5.20;;;;;;;9.98;100.00;95262.03;4953063;28;20188;-60
2022/01/02 02:07:43;;;;;;;5.60;5.00;;;;;;;9.91;100.00;95258.34;4953476;28;20185;-60
2022/01/02 02:10:15;;;;;;;8.67;6.23;;;;;;;9.91;100.00;95262.59;4951803;29;20632;-62
2022/01/02 02:12:44;;;;;;;7.57;5.43;;;;;;;9.92;100.00;95256.59;4953482;28;20208;-62
2022/01/02 02:15:11;;;;;;;7.53;5.53;;;;;;;9.91;100.00;95248.19;4952909;28;20183;-63
2022/01/02 02:17:37;;;;;;;7.00;5.80;;;;;;;9.92;100.00;95246.44;4953330;28;20205;-60
2022/01/02 02:20:14;;;;;;;6.37;5.37;;;;;;;9.88;100.00;95243.31;4952806;28;20208;-59
2022/01/02 02:22:42;;;;;;;7.23;5.97;;;;;;;9.92;100.00;95248.97;4953301;28;20742;-61
2022/01/02 02:25:10;;;;;;;7.80;5.57;;;;;;;9.86;100.00;95247.69;4952766;28;20189;-61
2022/01/02 02:27:36;;;;;;;6.97;5.00;;;;;;;9.89;100.00;95247.47;5035692;28;20208;-60
2022/01/02 02:30:06;;;;;;;6.47;5.53;;;;;;;9.87;100.00;95254.41;4953055;28;20193;-63
2022/01/02 02:32:31;;;;;;;8.30;6.23;;;;;;;9.91;100.00;95252.44;4953173;28;20212;-59
2022/01/02 02:34:57;;;;;;;7.43;6.30;;;;;;;9.91;100.00;95255.78;4952794;28;20189;-60
2022/01/02 02:37:24;;;;;;;6.43;4.97;;;;;;;9.93;100.00;95248.88;4952969;28;20249;-61
2022/01/02 02:39:50;;;;;;;7.80;6.17;;;;;;;9.86;100.00;95252.75;4951408;29;20215;-61
2022/01/02 02:42:29;;;;;;;6.47;5.57;;;;;;;9.84;100.00;95253.78;4952938;28;20241;-61
2022/01/02 02:48:33;;;;;;;10.23;5.87;;;;;;;9.85;100.00;95252.88;4952617;28;20230;-59
2022/01/02 02:50:23;;;;;;;6.10;5.03;;;;;;;9.89;100.00;95257.63;4951957;29;20256;-60
2022/01/02 02:52:49;;;;;;;6.60;4.70;;;;;;;9.83;100.00;95257.25;4952459;28;20256;-59
2022/01/02 02:55:14;;;;;;;7.67;5.87;;;;;;;9.81;100.00;95249.75;4952564;28;20552;-60
2022/01/02 02:57:40;;;;;;;6.73;5.70;;;;;;;9.85;100.00;95252.88;4952770;28;20273;-59
2022/01/02 03:00:06;;;;;;;7.53;5.27;;;;;;;9.86;100.00;95257.84;4952352;28;20201;-61
2022/01/02 03:02:31;;;;;;;7.47;6.13;;;;;;;9.85;100.00;95256.25;4952570;28;20209;-61
2022/01/02 03:04:57;;;;;;;7.33;6.03;;;;;;;9.77;100.00;95252.63;4952455;28;20639;-61
2022/01/02 03:07:29;;;;;;;6.93;5.23;;;;;;;9.80;100.00;95258.28;4951126;28;20213;-60
2022/01/02 03:09:58;;;;;;;7.17;5.83;;;;;;;9.79;100.00;95256.69;4952261;28;20169;-60
2022/01/02 03:12:30;;;;;;;8.70;6.27;;;;;;;9.85;100.00;95263.84;4952578;28;20304;-60
2022/01/02 03:14:56;;;;;;;7.87;5.70;;;;;;;9.86;100.00;95268.00;4952053;28;20189;-60
2022/01/02 03:17:21;;;;;;;7.33;5.93;;;;;;;9.77;100.00;95270.41;4950823;28;20216;-60
2022/01/02 03:19:46;;;;;;;6.67;5.60;;;;;;;9.79;100.00;95269.38;4951994;28;20555;-61
2022/01/02 03:22:14;;;;;;;7.80;6.20;;;;;;;9.74;100.00;95263.81;4952254;28;20292;-61
2022/01/02 03:24:39;;;;;;;7.07;5.50;;;;;;;9.73;100.00;95264.75;4950640;28;20573;-62
2022/01/02 03:27:05;;;;;;;6.93;5.67;;;;;;;9.80;100.00;95276.06;4952203;28;20205;-61
2022/01/02 03:29:30;;;;;;;7.57;5.90;;;;;;;9.73;100.00;95272.34;4952173;28;20211;-61
2022/01/02 03:31:56;;;;;;;9.03;6.10;;;;;;;9.74;100.00;95268.06;4952117;28;20299;-61
2022/01/02 03:34:21;;;;;;;7.27;5.53;;;;;;;9.70;100.00;95259.06;4951815;28;20165;-62
2022/01/02 03:36:47;;;;;;;7.67;5.93;;;;;;;9.68;100.00;95266.78;4951954;28;20603;-60
2022/01/02 03:39:13;;;;;;;7.80;5.37;;;;;;;9.72;100.00;95264.81;4951802;28;20178;-62
2022/01/02 03:41:39;;;;;;;9.47;6.20;;;;;;;9.67;100.00;95262.66;4951753;28;20685;-60
2022/01/02 03:44:04;;;;;;;8.57;5.63;;;;;;;9.67;100.00;95259.28;4951679;28;20263;-60
2022/01/02 03:46:30;;;;;;;6.50;5.50;;;;;;;9.62;100.00;95259.59;4951692;28;20205;-59
2022/01/02 03:48:55;;;;;;;6.00;5.07;;;;;;;9.63;100.00;95262.97;4951812;28;20640;-60
2022/01/02 03:51:20;;;;;;;8.53;4.90;;;;;;;9.63;100.00;95255.34;4950530;29;20209;-63
2022/01/02 03:53:47;;;;;;;7.37;5.60;;;;;;;9.61;100.00;95255.47;4950260;28;20181;-62
2022/01/02 03:56:13;;;;;;;7.80;5.53;;;;;;;9.59;100.00;95259.03;4951485;28;20201;-63
2022/01/02 03:58:38;;;;;;;8.33;5.80;;;;;;;9.58;100.00;95253.13;4951396;28;20181;-62
2022/01/02 04:01:04;;;;;;;6.97;5.13;;;;;;;9.55;100.00;95250.81;4951171;28;20227;-60
2022/01/02 04:03:29;;;;;;;6.67;5.37;;;;;;;9.56;100.00;95251.59;4951298;28;20230;-61
2022/01/02 04:05:55;;;;;;;7.67;5.40;;;;;;;9.56;100.00;95254.16;4951378;28;20675;-61
2022/01/02 04:08:20;;;;;;;7.70;5.57;;;;;;;9.53;100.00;95264.53;4951345;28;20174;-61
2022/01/02 04:10:46;;;;;;;6.33;5.07;;;;;;;9.50;100.00;95263.00;4951215;28;20266;-62
2022/01/02 04:13:11;;;;;;;6.57;5.50;;;;;;;9.48;100.00;95266.56;4951173;28;20200;-61
2022/01/02 04:15:37;;;;;;;7.30;6.07;;;;;;;9.46;100.00;95268.41;4934010;29;20292;-60
2022/01/02 04:18:02;;;;;;;7.70;5.37;;;;;;;9.49;100.00;95268.22;4951181;28;20223;-63
2022/01/02 04:20:28;;;;;;;7.73;6.03;;;;;;;9.44;100.00;95280.38;4950851;28;20197;-60
2022/01/02 04:22:54;;;;;;;6.57;5.07;;;;;;;9.46;100.00;95279.38;4951693;28;20559;-61
2022/01/02 04:25:19;;;;;;;7.17;5.80;;;;;;;9.50;100.00;95279.97;4949751;29;20186;-62
2022/01/02 04:27:45;;;;;;;7.90;6.00;;;;;;;9.47;100.00;95282.72;4949835;28;20705;-63
2022/01/02 04:30:13;;;;;;;6.90;5.37;;;;;;;9.52;100.00;95298.44;4951100;28;20177;-61
2022/01/02 04:32:40;;;;;;;7.27;5.47;;;;;;;9.53;100.00;95289.91;4949817;28;20189;-59
2022/01/02 04:35:06;;;;;;;7.47;5.93;;;;;;;9.51;100.00;95284.94;4950859;28;20603;-60
2022/01/02 04:37:32;;;;;;;7.37;5.97;;;;;;;9.53;100.00;95280.56;4951200;28;20237;-60
2022/01/02 04:39:57;;;;;;;6.80;5.77;;;;;;;9.54;100.00;95292.34;5033510;28;20204;-61
2022/01/02 04:42:23;;;;;;;7.13;6.30;;;;;;;9.58;100.00;95290.38;4951421;28;20212;-59
2022/01/02 04:44:48;;;;;;;7.60;5.90;;;;;;;9.55;100.00;95285.53;4950765;28;20185;-62
2022/01/02 04:47:14;;;;;;;11.17;6.17;;;;;;;9.55;100.00;95283.81;4951184;28;20284;-59
2022/01/02 04:49:39;;;;;;;7.53;6.00;;;;;;;9.51;100.00;95292.56;4951036;28;20193;-61
2022/01/02 04:52:05;;;;;;;7.23;5.60;;;;;;;9.50;100.00;95293.47;4950900;28;20219;-63
2022/01/02 04:54:30;;;;;;;6.97;5.40;;;;;;;9.46;100.00;95301.41;4950787;28;20251;-59
2022/01/02 04:56:56;;;;;;;8.17;5.97;;;;;;;9.50;100.00;95295.19;4950859;28;20226;-62
2022/01/02 04:59:21;;;;;;;8.83;6.50;;;;;;;9.49;100.00;95304.56;4950668;28;20185;-61
2022/01/02 05:01:47;;;;;;;7.73;6.03;;;;;;;9.54;100.00;95299.13;4950707;28;20725;-62
2022/01/02 05:04:13;;;;;;;7.47;6.00;;;;;;;9.58;100.00;95303.06;4950585;28;20272;-63
2022/01/02 05:06:39;;;;;;;6.67;5.97;;;;;;;9.54;100.00;95299.13;4950400;28;20213;-60
2022/01/02 05:09:05;;;;;;;8.33;5.20;;;;;;;9.42;100.00;95297.44;4950446;28;20310;-61
2022/01/02 05:11:30;;;;;;;10.23;6.33;;;;;;;9.42;100.00;95303.34;4949544;28;20209;-58
2022/01/02 05:13:56;;;;;;;7.03;5.57;;;;;;;9.43;100.00;95301.63;4954078;28;20185;-62
2022/01/02 05:16:22;;;;;;;7.40;6.00;;;;;;;9.42;100.00;95297.44;4954009;28;20234;-59
2022/01/02 05:18:47;;;;;;;7.80;5.90;;;;;;;9.49;100.00;95304.56;4954059;28;20185;-60
2022/01/02 05:21:13;;;;;;;7.87;5.53;;;;;;;9.46;100.00;95299.69;4953614;28;20250;-62
2022/01/02 05:23:39;;;;;;;7.83;6.10;;;;;;;9.48;100.00;95305.47;4953692;28;20177;-60
2022/01/02 05:26:05;;;;;;;7.73;6.07;;;;;;;9.49;100.00;95301.19;4953601;28;20205;-63
2022/01/02 05:28:30;;;;;;;6.33;5.73;;;;;;;9.55;100.00;95310.91;4953966;28;20260;-61
2022/01/02 05:30:56;;;;;;;8.03;6.07;;;;;;;9.54;100.00;95306.75;4953691;28;20296;-61
2022/01/02 05:33:28;;;;;;;8.13;5.93;;;;;;;9.51;100.00;95302.72;4953852;28;20204;-62
2022/01/02 05:35:54;;;;;;;6.80;5.50;;;;;;;9.58;100.00;95308.97;4953855;28;20210;-59
2022/01/02 05:38:20;;;;;;;7.80;6.03;;;;;;;9.52;100.00;95304.31;4953697;28;20187;-62
2022/01/02 05:40:47;;;;;;;7.80;5.47;;;;;;;9.52;100.00;95304.31;4953761;28;20294;-59
2022/01/02 05:43:14;;;;;;;7.30;5.47;;;;;;;9.54;100.00;95310.09;4953688;28;20270;-62
2022/01/02 05:45:39;;;;;;;7.33;5.70;;;;;;;9.52;100.00;95306.84;4952440;28;20267;-61
2022/01/02 05:48:05;;;;;;;6.60;5.43;;;;;;;9.55;100.00;95304.13;5036638;28;20225;-59
2022/01/02 05:50:31;;;;;;;8.13;5.73;;;;;;;9.51;100.00;95309.50;4953379;28;20177;-61
2022/01/02 05:52:56;;;;;;;7.17;6.27;;;;;;;9.47;100.00;95311.47;4953435;28;20200;-61
2022/01/02 05:55:22;;;;;;;7.87;6.17;;;;;;;9.51;100.00;95317.13;4953304;28;20188;-59
2022/01/02 05:57:47;;;;;;;7.47;5.30;;;;;;;9.41;100.00;95309.34;4953359;28;20216;-60
2022/01/02 06:00:13;;;;;;;8.80;5.73;;;;;;;9.46;100.00;95309.00;4953253;28;20231;-62
2022/01/02 06:02:38;;;;;;;6.30;5.27;;;;;;;9.51;100.00;95310.34;4953767;28;20193;-61
2022/01/02 06:05:06;;;;;;;6.40;5.03;;;;;;;9.44;100.00;95308.31;4953323;28;20184;-60
2022/01/02 06:07:32;;;;;;;7.23;5.70;;;;;;;9.45;100.00;95323.44;4953603;28;20227;-61
2022/01/02 06:09:58;;;;;;;5.97;5.00;;;;;;;9.41;100.00;95316.97;4952804;28;20272;-62
2022/01/02 06:12:23;;;;;;;5.53;4.83;;;;;;;9.49;100.00;95322.31;4952007;28;20205;-62
2022/01/02 06:14:49;;;;;;;6.90;5.07;;;;;;;9.37;100.00;95325.72;4952111;28;20272;-60
2022/01/02 06:17:15;;;;;;;7.90;5.10;;;;;;;9.47;100.00;95325.88;5036311;28;20220;-60
2022/01/02 06:19:41;;;;;;;12.90;9.40;;;;;;;9.53;100.00;95331.34;4952999;28;20185;-63
2022/01/02 06:22:06;;;;;;;13.57;8.77;;;;;;;9.52;100.00;95328.88;4953132;28;20242;-63
2022/01/02 06:24:32;;;;;;;6.33;4.93;;;;;;;9.45;100.00;95332.78;4952645;28;20235;-60
2022/01/02 06:26:57;;;;;;;6.70;5.43;;;;;;;9.44;100.00;95336.22;4953452;28;20205;-60
2022/01/02 06:29:23;;;;;;;6.33;5.30;;;;;;;9.48;100.00;95343.53;4952734;28;20216;-61
2022/01/02 06:31:48;;;;;;;9.30;6.40;;;;;;;9.57;100.00;95337.00;4953161;28;20213;-61
2022/01/02 06:34:14;;;;;;;5.57;4.97;;;;;;;9.55;100.00;95352.34;4953061;28;20187;-61
2022/01/02 06:36:39;;;;;;;9.00;5.60;;;;;;;9.51;100.00;95339.97;5035701;28;20295;-63
2022/01/02 06:39:05;;;;;;;10.20;5.80;;;;;;;9.54;100.00;95350.72;5035631;28;20350;-63
2022/01/02 06:41:30;;;;;;;8.23;6.20;;;;;;;9.53;100.00;95346.56;4952676;28;20294;-58
2022/01/02 06:43:56;;;;;;;8.43;5.63;;;;;;;9.54;100.00;95353.25;4952482;28;20185;-62
2022/01/02 06:46:21;;;;;;;8.23;5.57;;;;;;;9.62;100.00;95362.88;4952786;28;20346;-59
2022/01/02 06:48:47;;;;;;;7.10;4.77;;;;;;;9.64;100.00;95364.38;4952481;28;20747;-61
2022/01/02 06:51:13;;;;;;;7.00;5.17;;;;;;;9.62;100.00;95368.75;4952417;28;20207;-60
2022/01/02 06:53:39;;;;;;;5.93;4.60;;;;;;;9.59;100.00;95365.63;4951086;28;20181;-61
2022/01/02 06:56:04;;;;;;;6.77;4.97;;;;;;;9.61;100.00;95371.41;4952408;28;20740;-61
2022/01/02 06:58:30;;;;;;;9.53;4.93;;;;;;;9.52;100.00;95369.50;4952341;28;20735;-61
2022/01/02 07:00:56;;;;;;;6.97;5.77;;;;;;;9.44;100.00;95370.03;4952376;28;20227;-62
2022/01/02 07:03:24;;;;;;;7.93;5.83;;;;;;;9.45;100.00;95366.59;4952454;28;20181;-62
2022/01/02 07:05:50;;;;;;;6.60;4.90;;;;;;;9.45;100.00;95384.34;4952374;28;20201;-60
2022/01/02 07:08:15;;;;;;;8.83;6.67;;;;;;;9.44;100.00;95381.91;4952170;28;20212;-63
2022/01/02 07:10:41;;;;;;;10.47;5.57;;;;;;;9.50;100.00;95387.38;4952340;28;20232;-61
2022/01/02 07:13:06;;;;;;;6.33;4.70;;;;;;;9.52;100.00;95388.06;4952223;28;20292;-62
2022/01/02 07:15:32;;;;;;;8.53;5.43;;;;;;;9.66;100.00;95392.19;4952148;28;20643;-62
2022/01/02 07:17:57;;;;;;;7.13;4.77;;;;;;;9.71;100.00;95396.06;4952165;28;20196;-60
2022/01/02 07:20:23;;;;;;;6.13;4.67;;;;;;;9.75;100.00;95397.47;4951973;28;20201;-59
2022/01/02 07:22:48;;;;;;;7.73;4.90;;;;;;;9.77;100.00;95407.50;4952641;28;20248;-63
2022/01/02 07:25:14;;;;;;;6.03;4.47;;;;;;;9.82;100.00;95398.63;4952146;28;20173;-62
2022/01/02 07:27:40;;;;;;;6.50;4.87;;;;;;;9.78;100.00;95404.03;4952590;28;20185;-61
2022/01/02 07:30:07;;;;;;;5.53;4.57;;;;;;;9.75;100.00;95407.63;4951904;28;20561;-61
2022/01/02 07:32:33;;;;;;;5.10;3.97;;;;;;;9.89;100.00;95416.81;4952186;28;20559;-65
2022/01/02 07:34:59;;;;;;;7.37;4.87;;;;;;;9.90;100.00;95406.53;4951235;28;20574;-62
2022/01/02 07:37:24;;;;;;;12.60;6.10;;;;;;;9.96;100.00;95407.81;4952135;28;20205;-62
2022/01/02 07:39:50;;;;;;;6.43;5.20;;;;;;;9.98;100.00;95418.69;5034512;28;20212;-61
2022/01/02 07:42:16;;;;;;;7.30;4.73;;;;;;;9.99;100.00;95418.59;4951820;28;20205;-61
2022/01/02 07:44:41;;;;;;;6.57;5.37;;;;;;;10.11;100.00;95415.25;4951746;28;20707;-62
2022/01/02 07:47:07;;;;;;;7.17;4.77;;;;;;;10.18;100.00;95423.22;4952042;28;20205;-63
2022/01/02 07:49:33;;;;;;;8.53;4.77;;;;;;;10.29;100.00;95419.91;4951765;28;20540;-62
2022/01/02 07:51:58;;;;;;;6.33;5.07;;;;;;;10.33;100.00;95426.41;4951357;28;20334;-61
2022/01/02 07:54:24;;;;;;;8.07;4.93;;;;;;;10.32;100.00;95417.16;4950078;28;20200;-63
2022/01/02 07:56:49;;;;;;;6.47;4.37;;;;;;;10.41;100.00;95422.41;4951663;28;20212;-61
2022/01/02 07:59:15;;;;;;;5.07;4.57;;;;;;;10.40;100.00;95408.09;4997662;23;20225;-62
2022/01/02 08:01:41;;;;;;;8.13;5.17;;;;;;;10.73;100.00;95423.41;5051947;28;20217;-61
2022/01/02 08:04:06;;;;;;;5.87;4.93;;;;;;;10.71;100.00;95430.34;5052446;28;20189;-61
2022/01/02 08:06:32;;;;;;;4.97;4.27;;;;;;;10.83;100.00;95438.81;5052142;28;20258;-60
2022/01/02 08:08:57;;;;;;;5.90;3.90;;;;;;;10.48;100.00;95421.06;5052341;28;20647;-61
2022/01/02 08:11:23;;;;;;;6.30;4.17;;;;;;;10.60;100.00;95425.25;5051910;28;20190;-64
2022/01/02 08:13:48;;;;;;;5.70;4.60;;;;;;;10.46;100.00;95417.00;5050543;28;20216;-60
2022/01/02 08:16:14;;;;;;;8.23;5.77;;;;;;;10.49;100.00;95419.28;5051858;28;20205;-63
2022/01/02 08:18:40;;;;;;;4.80;4.23;;;;;;;10.46;100.00;95417.00;5051039;28;20197;-60
2022/01/02 08:21:06;;;;;;;8.57;5.53;;;;;;;10.24;100.00;95404.19;5050124;28;20216;-61
2022/01/02 08:23:32;;;;;;;5.27;4.63;;;;;;;10.33;100.00;95418.78;5049951;28;20184;-63
2022/01/02 08:25:57;;;;;;;5.90;4.07;;;;;;;10.20;100.00;95420.59;5050477;28;20198;-64
2022/01/02 08:28:23;;;;;;;5.20;4.30;;;;;;;10.14;100.00;95409.91;5051667;28;20199;-58
2022/01/02 08:30:48;;;;;;;7.57;4.50;;;;;;;11.42;100.00;95401.28;5050440;28;20228;-62
2022/01/02 08:33:15;;;;;;;10.87;5.07;;;;;;;11.40;100.00;95457.41;5051171;28;20181;-65
2022/01/02 08:35:42;;;;;;;7.33;4.77;;;;;;;11.06;100.00;95442.22;5050554;28;20221;-60
2022/01/02 08:38:07;;;;;;;6.03;4.50;;;;;;;10.92;100.00;95433.06;5051715;28;20177;-62
2022/01/02 08:40:33;;;;;;;9.20;5.37;;;;;;;10.80;100.00;95434.78;5052026;28;20217;-62
2022/01/02 08:42:58;;;;;;;7.47;4.27;;;;;;;10.53;100.00;95418.97;5051601;28;20178;-60
2022/01/02 08:45:24;;;;;;;5.47;4.93;;;;;;;10.53;100.00;95426.59;5051639;28;20247;-61
2022/01/02 08:47:50;;;;;;;7.83;4.90;;;;;;;10.33;100.00;95423.84;5051544;28;20691;-60
2022/01/02 08:50:16;;;;;;;6.17;4.27;;;;;;;10.38;100.00;95419.28;5050183;28;20248;-61
2022/01/02 08:52:41;;;;;;;7.97;5.70;;;;;;;10.70;100.00;95430.47;5051652;28;20202;-61
2022/01/02 08:55:07;;;;;;;6.27;4.40;;;;;;;11.11;100.00;95470.69;5051757;28;20205;-63
2022/01/02 08:57:33;;;;;;;6.43;3.70;;;;;;;11.15;100.00;95470.34;5049829;28;20259;-62
2022/01/02 08:59:58;;;;;;;5.33;3.63;;;;;;;11.20;100.00;95455.53;5032188;23;20299;-63
2022/01/02 09:02:24;;;;;;;3.83;3.43;;;;;;;11.20;100.00;95470.81;4989136;28;20291;-61
2022/01/02 09:04:49;;;;;;;5.30;3.37;;;;;;;11.12;100.00;95459.56;4989225;28;20637;-63
2022/01/02 09:07:14;;;;;;;4.03;3.63;;;;;;;11.25;100.00;95466.19;5072245;22;20739;-63
2022/01/02 09:09:40;;;;;;;3.93;3.37;;;;;;;11.45;100.00;95480.78;5091713;28;20236;-61
2022/01/02 09:12:07;;;;;;;5.27;3.50;;;;;;;11.93;100.00;95491.59;5091721;28;20204;-60
2022/01/02 09:14:33;;;;;;;3.37;2.90;;;;;;;12.07;100.00;95509.19;5091391;28;20172;-61
2022/01/02 09:16:58;;;;;;;3.50;3.07;;;;;;;12.40;100.00;95509.09;5091600;28;20253;-62
2022/01/02 09:19:24;;;;;;;3.60;3.27;;;;;;;12.68;98.94;95521.31;5091519;28;20192;-63
2022/01/02 09:21:49;;;;;;;4.67;3.20;;;;;;;12.82;97.66;95520.22;5089982;28;20227;-60
2022/01/02 09:24:15;;;;;;;3.93;3.10;;;;;;;12.75;97.49;95508.88;5091148;28;20176;-63
2022/01/02 09:26:40;;;;;;;5.43;3.13;;;;;;;13.01;97.04;95509.38;5090764;28;20208;-64
2022/01/02 09:29:06;;;;;;;4.57;3.30;;;;;;;13.31;94.91;95530.69;5089336;28;20225;-62
2022/01/02 09:31:32;;;;;;;5.40;3.40;;;;;;;13.34;94.78;95501.53;5089735;28;20204;-63
2022/01/02 09:33:57;;;;;;;4.43;3.20;;;;;;;13.45;93.93;95515.03;5091173;28;20177;-62
2022/01/02 09:36:23;;;;;;;4.17;3.20;;;;;;;13.35;93.33;95509.06;5090715;28;20205;-61
2022/01/02 09:38:48;;;;;;;3.47;3.17;;;;;;;13.53;93.31;95495.72;5090972;28;20183;-63
2022/01/02 09:41:14;;;;;;;3.33;2.90;;;;;;;13.65;90.71;95535.59;5091036;28;20228;-59
2022/01/02 09:43:39;;;;;;;4.27;3.43;;;;;;;13.69;90.95;95519.06;5089478;28;20184;-61
2022/01/02 09:46:06;;;;;;;3.20;2.90;;;;;;;13.57;92.10;95492.81;5091234;28;20684;-61
2022/01/02 09:48:32;;;;;;;4.00;3.17;;;;;;;14.29;88.93;95531.84;5090826;28;20176;-59
2022/01/02 09:50:58;;;;;;;3.80;3.20;;;;;;;14.31;87.58;95535.09;5091074;28;20214;-61
2022/01/02 09:53:24;;;;;;;4.73;3.27;;;;;;;14.59;87.63;95520.72;5091107;28;20255;-61
2022/01/02 09:55:50;;;;;;;3.20;2.90;;;;;;;15.32;85.01;95553.50;5090974;28;20211;-59
2022/01/02 09:58:15;;;;;;;4.40;3.90;;;;;;;15.29;83.68;95557.13;5092254;28;20187;-62
2022/01/02 10:00:48;;;;;;;3.85;3.30;;;;;;;15.56;81.15;95598.28;5094604;28;20223;-61
2022/01/02 10:03:14;;;;;;;5.60;3.45;;;;;;;14.91;82.82;95544.31;5093353;28;20305;-65
2022/01/02 10:05:59;;;;;;;3.78;3.28;;;;;;;14.62;84.23;95513.59;5094707;28;20221;-64
2022/01/02 10:08:31;;;;;;;2.90;2.50;;;;;;;14.85;84.25;95514.94;5094490;28;20653;-61
2022/01/02 10:11:22;;;;;;;5.65;4.47;;;;;;;14.56;84.88;95503.91;5094408;28;20222;-61
2022/01/02 10:13:53;;;;;;;5.32;3.50;;;;;;;14.19;85.55;95475.53;5094650;28;20578;-62
2022/01/02 10:16:21;;;;;;;3.37;3.07;;;;;;;14.24;85.66;95472.59;5094434;28;20319;-64
2022/01/02 10:18:49;;;;;;;2.85;2.63;;;;;;;14.36;85.30;95476.69;5094455;28;20531;-61
2022/01/02 10:21:33;;;;;;;3.33;3.03;;;;;;;14.36;85.00;95478.41;5094223;28;20688;-61
2022/01/02 10:24:21;;;;;;;3.40;2.80;;;;;;;15.14;83.91;95497.03;5094183;28;20176;-61
2022/01/02 10:27:13;;;;;;;3.92;3.20;;;;;;;15.05;82.24;95516.56;5094146;28;20200;-66
2022/01/02 10:29:51;;;;;;;4.20;3.10;;;;;;;15.36;81.34;95532.59;5092377;28;20189;-64
2022/01/02 10:32:32;;;;;;;7.13;3.30;;;;;;;15.35;81.89;95509.66;5093467;28;20196;-64
2022/01/02 10:35:21;;;;;;;5.30;3.55;;;;;;;16.00;79.75;95550.66;5094365;28;20259;-61
2022/01/02 10:37:55;;;;;;;7.88;3.50;;;;;;;15.36;80.55;95514.66;5094082;28;20645;-63
2022/01/02 10:40:31;;;;;;;4.25;2.40;;;;;;;15.56;80.63;95500.88;5093769;28;20202;-64
2022/01/02 10:42:57;;;;;;;5.53;2.83;;;;;;;15.70;79.95;95512.44;5094630;28;20229;-61
2022/01/02 10:45:44;;;;;;;3.08;2.78;;;;;;;16.14;79.65;95519.41;5093863;28;20168;-62
2022/01/02 10:48:13;;;;;;;4.15;2.78;;;;;;;16.21;77.73;95553.84;5092768;28;20180;-61
2022/01/02 10:51:00;;;;;;;3.20;2.70;;;;;;;16.17;76.56;95559.38;5092523;28;20204;-64
2022/01/02 10:53:27;;;;;;;4.18;3.25;;;;;;;15.46;78.82;95501.84;5093900;28;20171;-64
2022/01/02 10:55:53;;;;;;;3.97;3.10;;;;;;;15.10;81.15;95447.03;5092462;28;20581;-64
2022/01/02 10:58:18;;;;;;;3.10;2.80;;;;;;;14.91;82.29;95429.09;5093715;28;20261;-60
2022/01/02 11:00:44;;;;;;;5.15;3.72;;;;;;;14.43;83.21;95411.22;5093552;28;20208;-63
2022/01/02 11:03:12;;;;;;;4.35;3.80;;;;;;;14.06;85.41;95374.41;5093723;28;20183;-61
2022/01/02 11:05:39;;;;;;;6.33;3.30;;;;;;;14.16;84.98;95380.34;5091702;28;20257;-62
2022/01/02 11:08:05;;;;;;;3.97;3.13;;;;;;;14.60;84.46;95402.88;5093618;28;20239;-60
2022/01/02 11:10:35;;;;;;;3.45;2.83;;;;;;;15.25;82.71;95435.38;5092601;28;20676;-62
2022/01/02 11:13:03;;;;;;;5.53;2.70;;;;;;;15.70;81.01;95461.16;5093056;28;20194;-64
2022/01/02 11:15:30;;;;;;;2.72;2.20;;;;;;;15.90;79.27;95481.47;5093201;28;20172;-64
2022/01/02 11:17:56;;;;;;;3.30;2.40;;;;;;;16.07;78.57;95490.16;5093261;28;20168;-62
2022/01/02 11:20:27;;;;;;;4.25;2.20;;;;;;;16.48;76.87;95514.53;5093015;28;20571;-59
2022/01/02 11:23:04;;;;;;;3.97;2.42;;;;;;;16.15;75.96;95531.31;5091704;28;20233;-62
2022/01/02 11:25:42;;;;;;;3.42;2.70;;;;;;;16.05;75.82;95512.59;5093027;28;20695;-62
2022/01/02 11:28:22;;;;;;;5.13;2.65;;;;;;;16.02;76.64;95491.53;5093319;28;20180;-61
2022/01/02 11:30:50;;;;;;;4.22;2.60;;;;;;;15.95;76.53;95499.00;5093171;28;20208;-61
2022/01/02 11:33:19;;;;;;;2.28;2.08;;;;;;;15.98;76.21;95494.38;5093173;28;20165;-61
2022/01/02 11:35:49;;;;;;;3.03;2.35;;;;;;;15.86;76.37;95492.94;5092831;28;20196;-61